sensor_id;sensor_type;location;lat;lon;timestamp;pressure;altitude;pressure_sealevel;temperature;humidity
13420;BME280;6781;58.440;15.470;2024-02-15T00:02:20;104690.75;;;0.59;100.00
13420;BME280;6781;58.440;15.470;2024-02-15T00:04:47;104710.50;;;0.65;100.00
13420;BME280;6781;58.440;15.470;2024-02-15T00:07:13;104719.88;;;0.64;100.00
13420;BME280;6781;58.440;15.470;2024-02-15T00:09:42;104726.78;;;0.69;100.00
13420;BME280;6781;58.440;15.470;2024-02-15T00:12:09;104730.03;;;0.63;100.00
13420;BME280;6781;58.440;15.470;2024-02-15T00:14:35;104732.41;;;0.57;100.00
13420;BME280;6781;58.440;15.470;2024-02-15T00:17:03;104736.56;;;0.53;100.00
13420;BME280;6781;58.440;15.470;2024-02-15T00:19:30;104758.03;;;0.60;100.00
13420;BME280;6781;58.440;15.470;2024-02-15T00:21:57;104767.56;;;0.65;100.00
13420;BME280;6781;58.440;15.470;2024-02-15T00:24:24;104773.47;;;0.63;100.00
13420;BME280;6781;58.440;15.470;2024-02-15T00:26:52;104779.34;;;0.60;100.00
13420;BME280;6781;58.440;15.470;2024-02-15T00:29:19;104793.03;;;0.62;100.00
13420;BME280;6781;58.440;15.470;2024-02-15T00:31:46;104787.72;;;0.56;100.00
13420;BME280;6781;58.440;15.470;2024-02-15T00:34:14;104798.72;;;0.54;100.00
13420;BME280;6781;58.440;15.470;2024-02-15T00:36:42;104807.25;;;0.54;100.00
13420;BME280;6781;58.440;15.470;2024-02-15T00:39:09;104821.81;;;0.57;100.00
13420;BME280;6781;58.440;15.470;2024-02-15T00:41:36;104832.94;;;0.59;100.00
13420;BME280;6781;58.440;15.470;2024-02-15T00:44:08;104826.75;;;0.52;100.00
13420;BME280;6781;58.440;15.470;2024-02-15T00:46:35;104836.97;;;0.52;100.00
13420;BME280;6781;58.440;15.470;2024-02-15T00:49:02;104841.16;;;0.50;100.00
13420;BME280;6781;58.440;15.470;2024-02-15T00:51:31;104853.13;;;0.51;100.00
13420;BME280;6781;58.440;15.470;2024-02-15T00:53:58;104865.06;;;0.52;100.00
13420;BME280;6781;58.440;15.470;2024-02-15T00:56:24;104872.94;;;0.58;100.00
13420;BME280;6781;58.440;15.470;2024-02-15T00:58:51;104871.91;;;0.53;100.00
13420;BME280;6781;58.440;15.470;2024-02-15T01:01:19;104881.22;;;0.51;100.00
13420;BME280;6781;58.440;15.470;2024-02-15T01:03:46;104892.19;;;0.49;100.00
13420;BME280;6781;58.440;15.470;2024-02-15T01:06:13;104906.91;;;0.56;100.00
13420;BME280;6781;58.440;15.470;2024-02-15T01:08:40;104912.69;;;0.50;100.00
13420;BME280;6781;58.440;15.470;2024-02-15T01:11:06;104919.38;;;0.47;100.00
13420;BME280;6781;58.440;15.470;2024-02-15T01:13:34;104923.66;;;0.48;100.00
13420;BME280;6781;58.440;15.470;2024-02-15T01:16:01;104922.84;;;0.49;100.00
13420;BME280;6781;58.440;15.470;2024-02-15T01:18:30;104933.13;;;0.50;100.00
13420;BME280;6781;58.440;15.470;2024-02-15T01:20:56;104936.28;;;0.43;100.00
13420;BME280;6781;58.440;15.470;2024-02-15T01:23:24;104943.84;;;0.40;100.00
13420;BME280;6781;58.440;15.470;2024-02-15T01:25:51;104948.00;;;0.38;100.00
13420;BME280;6781;58.440;15.470;2024-02-15T01:28:17;104959.38;;;0.46;100.00
13420;BME280;6781;58.440;15.470;2024-02-15T01:30:44;104974.91;;;0.52;100.00
13420;BME280;6781;58.440;15.470;2024-02-15T01:33:11;104984.31;;;0.53;100.00
13420;BME280;6781;58.440;15.470;2024-02-15T01:35:40;104992.06;;;0.56;100.00
13420;BME280;6781;58.440;15.470;2024-02-15T01:38:06;104983.28;;;0.48;100.00
13420;BME280;6781;58.440;15.470;2024-02-15T01:40:33;104994.34;;;0.49;100.00
13420;BME280;6781;58.440;15.470;2024-02-15T01:43:00;105001.03;;;0.45;100.00
13420;BME280;6781;58.440;15.470;2024-02-15T01:45:27;105015.81;;;0.54;100.00
13420;BME280;6781;58.440;15.470;2024-02-15T01:47:54;105003.69;;;0.48;100.00
13420;BME280;6781;58.440;15.470;2024-02-15T01:50:21;105016.53;;;0.50;100.00
13420;BME280;6781;58.440;15.470;2024-02-15T01:52:50;105014.03;;;0.51;100.00
13420;BME280;6781;58.440;15.470;2024-02-15T01:55:18;105019.94;;;0.50;100.00
13420;BME280;6781;58.440;15.470;2024-02-15T01:57:45;105023.47;;;0.54;100.00
13420;BME280;6781;58.440;15.470;2024-02-15T02:00:12;105038.75;;;0.52;100.00
13420;BME280;6781;58.440;15.470;2024-02-15T02:02:41;105033.44;;;0.46;100.00
13420;BME280;6781;58.440;15.470;2024-02-15T02:05:08;105044.69;;;0.51;100.00
13420;BME280;6781;58.440;15.470;2024-02-15T02:07:36;105036.75;;;0.44;100.00
13420;BME280;6781;58.440;15.470;2024-02-15T02:10:05;105047.06;;;0.47;100.00
13420;BME280;6781;58.440;15.470;2024-02-15T02:12:32;105047.72;;;0.41;100.00
13420;BME280;6781;58.440;15.470;2024-02-15T02:14:59;105061.63;;;0.49;100.00
13420;BME280;6781;58.440;15.470;2024-02-15T02:17:26;105053.63;;;0.40;100.00
13420;BME280;6781;58.440;15.470;2024-02-15T02:19:53;105068.47;;;0.50;100.00
13420;BME280;6781;58.440;15.470;2024-02-15T02:22:20;105070.22;;;0.51;100.00
13420;BME280;6781;58.440;15.470;2024-02-15T02:24:55;105082.28;;;0.55;100.00
13420;BME280;6781;58.440;15.470;2024-02-15T02:27:23;105073.59;;;0.50;100.00
13420;BME280;6781;58.440;15.470;2024-02-15T02:29:51;105079.56;;;0.51;100.00
13420;BME280;6781;58.440;15.470;2024-02-15T02:32:18;105091.69;;;0.56;100.00
13420;BME280;6781;58.440;15.470;2024-02-15T02:34:45;105081.41;;;0.55;100.00
13420;BME280;6781;58.440;15.470;2024-02-15T02:37:12;105089.25;;;0.59;100.00
13420;BME280;6781;58.440;15.470;2024-02-15T02:39:39;105085.81;;;0.59;100.00
13420;BME280;6781;58.440;15.470;2024-02-15T02:42:08;105071.16;;;0.53;100.00
13420;BME280;6781;58.440;15.470;2024-02-15T02:44:34;105063.16;;;0.44;100.00
13420;BME280;6781;58.440;15.470;2024-02-15T02:47:01;105074.34;;;0.48;100.00
13420;BME280;6781;58.440;15.470;2024-02-15T02:49:28;105070.09;;;0.48;100.00
13420;BME280;6781;58.440;15.470;2024-02-15T02:51:55;105081.25;;;0.50;100.00
13420;BME280;6781;58.440;15.470;2024-02-15T02:54:21;105078.69;;;0.50;100.00
13420;BME280;6781;58.440;15.470;2024-02-15T02:56:48;105086.13;;;0.44;100.00
13420;BME280;6781;58.440;15.470;2024-02-15T02:59:16;105092.97;;;0.45;100.00
13420;BME280;6781;58.440;15.470;2024-02-15T03:04:19;105108.41;;;0.48;100.00
13420;BME280;6781;58.440;15.470;2024-02-15T03:06:46;105123.81;;;0.50;100.00
13420;BME280;6781;58.440;15.470;2024-02-15T03:09:13;105124.66;;;0.50;100.00
13420;BME280;6781;58.440;15.470;2024-02-15T03:11:39;105128.75;;;0.45;100.00
13420;BME280;6781;58.440;15.470;2024-02-15T03:14:06;105138.38;;;0.52;100.00
13420;BME280;6781;58.440;15.470;2024-02-15T03:16:34;105141.63;;;0.48;100.00
13420;BME280;6781;58.440;15.470;2024-02-15T03:19:01;105149.47;;;0.53;100.00
13420;BME280;6781;58.440;15.470;2024-02-15T03:21:30;105150.31;;;0.53;100.00
13420;BME280;6781;58.440;15.470;2024-02-15T03:23:56;105160.78;;;0.59;100.00
13420;BME280;6781;58.440;15.470;2024-02-15T03:26:29;105153.69;;;0.52;100.00
13420;BME280;6781;58.440;15.470;2024-02-15T03:28:56;105159.69;;;0.53;100.00
13420;BME280;6781;58.440;15.470;2024-02-15T03:31:23;105162.28;;;0.54;100.00
13420;BME280;6781;58.440;15.470;2024-02-15T03:33:51;105163.91;;;0.52;100.00
13420;BME280;6781;58.440;15.470;2024-02-15T03:36:19;105162.97;;;0.50;100.00
13420;BME280;6781;58.440;15.470;2024-02-15T03:38:46;105148.25;;;0.43;100.00
13420;BME280;6781;58.440;15.470;2024-02-15T03:41:13;105155.97;;;0.45;100.00
13420;BME280;6781;58.440;15.470;2024-02-15T03:43:40;105165.41;;;0.47;100.00
13420;BME280;6781;58.440;15.470;2024-02-15T03:46:07;105167.28;;;0.51;100.00
13420;BME280;6781;58.440;15.470;2024-02-15T03:48:37;105161.00;;;0.43;100.00
13420;BME280;6781;58.440;15.470;2024-02-15T03:51:05;105168.03;;;0.49;100.00
13420;BME280;6781;58.440;15.470;2024-02-15T03:53:34;105174.88;;;0.50;100.00
13420;BME280;6781;58.440;15.470;2024-02-15T03:56:03;105180.97;;;0.53;100.00
13420;BME280;6781;58.440;15.470;2024-02-15T03:58:29;105185.97;;;0.50;100.00
13420;BME280;6781;58.440;15.470;2024-02-15T04:00:58;105189.41;;;0.51;100.00
13420;BME280;6781;58.440;15.470;2024-02-15T04:03:24;105205.81;;;0.57;100.00
13420;BME280;6781;58.440;15.470;2024-02-15T04:05:51;105195.44;;;0.53;100.00
13420;BME280;6781;58.440;15.470;2024-02-15T04:08:20;105190.97;;;0.47;100.00
13420;BME280;6781;58.440;15.470;2024-02-15T04:10:47;105198.69;;;0.49;100.00
13420;BME280;6781;58.440;15.470;2024-02-15T04:13:14;105205.66;;;0.53;100.00
13420;BME280;6781;58.440;15.470;2024-02-15T04:15:41;105206.28;;;0.47;100.00
13420;BME280;6781;58.440;15.470;2024-02-15T04:18:08;105214.88;;;0.49;100.00
13420;BME280;6781;58.440;15.470;2024-02-15T04:20:37;105224.22;;;0.49;100.00
13420;BME280;6781;58.440;15.470;2024-02-15T04:23:04;105233.69;;;0.51;100.00
13420;BME280;6781;58.440;15.470;2024-02-15T04:25:33;105239.56;;;0.49;100.00
13420;BME280;6781;58.440;15.470;2024-02-15T04:28:00;105243.66;;;0.45;100.00
13420;BME280;6781;58.440;15.470;2024-02-15T04:30:29;105249.66;;;0.46;100.00
13420;BME280;6781;58.440;15.470;2024-02-15T04:32:56;105255.50;;;0.43;100.00
13420;BME280;6781;58.440;15.470;2024-02-15T04:35:22;105269.97;;;0.43;100.00
13420;BME280;6781;58.440;15.470;2024-02-15T04:37:53;105270.59;;;0.37;100.00
13420;BME280;6781;58.440;15.470;2024-02-15T04:40:19;105284.28;;;0.39;100.00
13420;BME280;6781;58.440;15.470;2024-02-15T04:42:47;105300.41;;;0.38;100.00
13420;BME280;6781;58.440;15.470;2024-02-15T04:45:14;105303.97;;;0.42;100.00
13420;BME280;6781;58.440;15.470;2024-02-15T04:47:41;105319.34;;;0.43;100.00
13420;BME280;6781;58.440;15.470;2024-02-15T04:50:10;105330.56;;;0.47;100.00
13420;BME280;6781;58.440;15.470;2024-02-15T04:52:37;105327.75;;;0.41;100.00
13420;BME280;6781;58.440;15.470;2024-02-15T04:55:04;105340.47;;;0.39;100.00
13420;BME280;6781;58.440;15.470;2024-02-15T04:57:31;105349.75;;;0.37;100.00
13420;BME280;6781;58.440;15.470;2024-02-15T05:00:01;105359.97;;;0.37;100.00
13420;BME280;6781;58.440;15.470;2024-02-15T05:02:35;105362.41;;;0.34;100.00
13420;BME280;6781;58.440;15.470;2024-02-15T05:05:05;105381.47;;;0.42;100.00
13420;BME280;6781;58.440;15.470;2024-02-15T05:07:33;105388.25;;;0.42;100.00
13420;BME280;6781;58.440;15.470;2024-02-15T05:10:00;105392.50;;;0.41;100.00
13420;BME280;6781;58.440;15.470;2024-02-15T05:12:34;105407.25;;;0.48;100.00
13420;BME280;6781;58.440;15.470;2024-02-15T05:15:02;105398.16;;;0.34;100.00
13420;BME280;6781;58.440;15.470;2024-02-15T05:17:35;105402.44;;;0.35;100.00
13420;BME280;6781;58.440;15.470;2024-02-15T05:20:01;105407.63;;;0.37;100.00
13420;BME280;6781;58.440;15.470;2024-02-15T05:22:35;105404.13;;;0.35;100.00
13420;BME280;6781;58.440;15.470;2024-02-15T05:25:04;105425.94;;;0.47;100.00
13420;BME280;6781;58.440;15.470;2024-02-15T05:27:31;105443.03;;;0.48;100.00
13420;BME280;6781;58.440;15.470;2024-02-15T05:29:56;105439.53;;;0.46;100.00
13420;BME280;6781;58.440;15.470;2024-02-15T05:32:25;105429.19;;;0.43;100.00
13420;BME280;6781;58.440;15.470;2024-02-15T05:34:52;105442.88;;;0.45;100.00
13420;BME280;6781;58.440;15.470;2024-02-15T05:37:20;105445.44;;;0.45;100.00
13420;BME280;6781;58.440;15.470;2024-02-15T05:39:48;105452.44;;;0.49;100.00
13420;BME280;6781;58.440;15.470;2024-02-15T05:42:19;105441.94;;;0.43;100.00
13420;BME280;6781;58.440;15.470;2024-02-15T05:44:45;105441.09;;;0.43;100.00
13420;BME280;6781;58.440;15.470;2024-02-15T05:47:13;105443.63;;;0.43;100.00
13420;BME280;6781;58.440;15.470;2024-02-15T05:49:41;105470.19;;;0.46;100.00
13420;BME280;6781;58.440;15.470;2024-02-15T05:52:10;105459.56;;;0.37;100.00
13420;BME280;6781;58.440;15.470;2024-02-15T05:54:37;105469.09;;;0.41;100.00
13420;BME280;6781;58.440;15.470;2024-02-15T05:57:06;105462.94;;;0.36;100.00
13420;BME280;6781;58.440;15.470;2024-02-15T05:59:37;105454.34;;;0.34;100.00
13420;BME280;6781;58.440;15.470;2024-02-15T06:02:05;105451.16;;;0.40;100.00
13420;BME280;6781;58.440;15.470;2024-02-15T06:04:33;105444.19;;;0.36;100.00
13420;BME280;6781;58.440;15.470;2024-02-15T06:07:01;105448.41;;;0.35;100.00
13420;BME280;6781;58.440;15.470;2024-02-15T06:09:28;105460.63;;;0.42;100.00
13420;BME280;6781;58.440;15.470;2024-02-15T06:11:58;105461.19;;;0.35;100.00
13420;BME280;6781;58.440;15.470;2024-02-15T06:14:25;105449.09;;;0.31;100.00
13420;BME280;6781;58.440;15.470;2024-02-15T06:16:52;105468.31;;;0.42;100.00
13420;BME280;6781;58.440;15.470;2024-02-15T06:19:20;105473.94;;;0.35;100.00
13420;BME280;6781;58.440;15.470;2024-02-15T06:21:48;105476.91;;;0.44;100.00
13420;BME280;6781;58.440;15.470;2024-02-15T06:24:17;105476.78;;;0.41;100.00
13420;BME280;6781;58.440;15.470;2024-02-15T06:26:44;105469.78;;;0.37;100.00
13420;BME280;6781;58.440;15.470;2024-02-15T06:29:14;105477.50;;;0.39;100.00
13420;BME280;6781;58.440;15.470;2024-02-15T06:31:58;105486.19;;;0.42;100.00
13420;BME280;6781;58.440;15.470;2024-02-15T06:34:42;105482.63;;;0.39;100.00
13420;BME280;6781;58.440;15.470;2024-02-15T06:37:35;105469.03;;;0.40;100.00
13420;BME280;6781;58.440;15.470;2024-02-15T06:40:21;105483.50;;;0.39;100.00
13420;BME280;6781;58.440;15.470;2024-02-15T06:42:49;105502.56;;;0.47;100.00
13420;BME280;6781;58.440;15.470;2024-02-15T06:45:15;105506.75;;;0.45;100.00
13420;BME280;6781;58.440;15.470;2024-02-15T06:47:44;105514.41;;;0.45;100.00
13420;BME280;6781;58.440;15.470;2024-02-15T06:50:14;105503.91;;;0.39;100.00
13420;BME280;6781;58.440;15.470;2024-02-15T06:52:42;105515.16;;;0.43;100.00
13420;BME280;6781;58.440;15.470;2024-02-15T06:55:10;105532.09;;;0.41;100.00
13420;BME280;6781;58.440;15.470;2024-02-15T06:57:41;105538.19;;;0.44;100.00
13420;BME280;6781;58.440;15.470;2024-02-15T07:00:09;105551.09;;;0.47;100.00
13420;BME280;6781;58.440;15.470;2024-02-15T07:02:40;105539.81;;;0.42;100.00
13420;BME280;6781;58.440;15.470;2024-02-15T07:05:09;105546.94;;;0.49;100.00
13420;BME280;6781;58.440;15.470;2024-02-15T07:07:36;105558.09;;;0.51;100.00
13420;BME280;6781;58.440;15.470;2024-02-15T07:10:04;105551.91;;;0.46;100.00
13420;BME280;6781;58.440;15.470;2024-02-15T07:12:31;105545.94;;;0.46;100.00
13420;BME280;6781;58.440;15.470;2024-02-15T07:15:06;105550.84;;;0.41;100.00
13420;BME280;6781;58.440;15.470;2024-02-15T07:17:34;105552.50;;;0.41;100.00
13420;BME280;6781;58.440;15.470;2024-02-15T07:20:04;105566.38;;;0.46;100.00
13420;BME280;6781;58.440;15.470;2024-02-15T07:22:37;105565.50;;;0.45;100.00
13420;BME280;6781;58.440;15.470;2024-02-15T07:25:05;105579.28;;;0.49;100.00
13420;BME280;6781;58.440;15.470;2024-02-15T07:27:33;105577.19;;;0.40;100.00
13420;BME280;6781;58.440;15.470;2024-02-15T07:30:08;105581.22;;;0.35;100.00
13420;BME280;6781;58.440;15.470;2024-02-15T07:32:35;105583.63;;;0.32;100.00
13420;BME280;6781;58.440;15.470;2024-02-15T07:35:13;105602.59;;;0.37;100.00
13420;BME280;6781;58.440;15.470;2024-02-15T07:37:50;105605.75;;;0.31;100.00
13420;BME280;6781;58.440;15.470;2024-02-15T07:40:19;105638.84;;;0.48;100.00
13420;BME280;6781;58.440;15.470;2024-02-15T07:43:01;105638.91;;;0.49;100.00
13420;BME280;6781;58.440;15.470;2024-02-15T07:45:37;105639.78;;;0.50;100.00
13420;BME280;6781;58.440;15.470;2024-02-15T07:48:22;105642.34;;;0.50;100.00
13420;BME280;6781;58.440;15.470;2024-02-15T07:50:53;105638.91;;;0.49;100.00
13420;BME280;6781;58.440;15.470;2024-02-15T07:53:32;105658.28;;;0.63;100.00
13420;BME280;6781;58.440;15.470;2024-02-15T07:56:13;105671.19;;;0.67;100.00
13420;BME280;6781;58.440;15.470;2024-02-15T07:58:42;105675.78;;;0.74;100.00
13420;BME280;6781;58.440;15.470;2024-02-15T08:01:15;105663.53;;;0.67;100.00
13420;BME280;6781;58.440;15.470;2024-02-15T08:03:43;105665.56;;;0.74;100.00
13420;BME280;6781;58.440;15.470;2024-02-15T08:06:10;105654.91;;;0.64;100.00
13420;BME280;6781;58.440;15.470;2024-02-15T08:08:40;105642.69;;;0.57;100.00
13420;BME280;6781;58.440;15.470;2024-02-15T08:11:21;105650.81;;;0.68;100.00
13420;BME280;6781;58.440;15.470;2024-02-15T08:13:51;105642.06;;;0.63;100.00
13420;BME280;6781;58.440;15.470;2024-02-15T08:19:07;105628.97;;;0.55;100.00
13420;BME280;6781;58.440;15.470;2024-02-15T08:21:39;105633.41;;;0.59;100.00
13420;BME280;6781;58.440;15.470;2024-02-15T08:24:15;105625.59;;;0.56;100.00
13420;BME280;6781;58.440;15.470;2024-02-15T08:26:46;105626.41;;;0.55;100.00
13420;BME280;6781;58.440;15.470;2024-02-15T08:29:19;105635.94;;;0.59;100.00
13420;BME280;6781;58.440;15.470;2024-02-15T08:32:03;105650.22;;;0.74;100.00
13420;BME280;6781;58.440;15.470;2024-02-15T08:34:57;105650.22;;;0.74;100.00
13420;BME280;6781;58.440;15.470;2024-02-15T08:37:28;105634.34;;;0.61;100.00
13420;BME280;6781;58.440;15.470;2024-02-15T08:40:15;105623.19;;;0.59;100.00
13420;BME280;6781;58.440;15.470;2024-02-15T08:42:53;105650.34;;;0.77;100.00
13420;BME280;6781;58.440;15.470;2024-02-15T08:45:40;105639.31;;;0.78;100.00
13420;BME280;6781;58.440;15.470;2024-02-15T08:48:09;105650.75;;;0.86;100.00
13420;BME280;6781;58.440;15.470;2024-02-15T08:50:53;105658.22;;;1.01;100.00
13420;BME280;6781;58.440;15.470;2024-02-15T08:53:34;105631.38;;;0.91;100.00
13420;BME280;6781;58.440;15.470;2024-02-15T08:56:16;105636.09;;;1.01;100.00
13420;BME280;6781;58.440;15.470;2024-02-15T08:58:58;105614.19;;;0.87;100.00
13420;BME280;6781;58.440;15.470;2024-02-15T09:01:31;105622.75;;;1.08;100.00
13420;BME280;6781;58.440;15.470;2024-02-15T09:04:11;105606.63;;;1.09;100.00
13420;BME280;6781;58.440;15.470;2024-02-15T09:07:05;105587.44;;;1.00;100.00
13420;BME280;6781;58.440;15.470;2024-02-15T09:09:44;105567.47;;;0.91;100.00
13420;BME280;6781;58.440;15.470;2024-02-15T09:12:33;105551.22;;;0.89;100.00
13420;BME280;6781;58.440;15.470;2024-02-15T09:15:02;105529.56;;;0.81;100.00
13420;BME280;6781;58.440;15.470;2024-02-15T09:17:49;105547.28;;;0.97;100.00
13420;BME280;6781;58.440;15.470;2024-02-15T09:20:20;105536.19;;;0.96;100.00
13420;BME280;6781;58.440;15.470;2024-02-15T09:23:01;105501.75;;;0.68;100.00
13420;BME280;6781;58.440;15.470;2024-02-15T09:25:40;105508.31;;;0.82;100.00
13420;BME280;6781;58.440;15.470;2024-02-15T09:31:14;105486.66;;;0.74;100.00
13420;BME280;6781;58.440;15.470;2024-02-15T09:33:55;105481.44;;;0.71;100.00
13420;BME280;6781;58.440;15.470;2024-02-15T09:37:01;105485.19;;;0.79;100.00
13420;BME280;6781;58.440;15.470;2024-02-15T09:45:46;105472.16;;;0.73;100.00
13420;BME280;6781;58.440;15.470;2024-02-15T09:48:19;105498.03;;;1.01;100.00
13420;BME280;6781;58.440;15.470;2024-02-15T09:50:52;105500.84;;;1.07;100.00
13420;BME280;6781;58.440;15.470;2024-02-15T09:53:22;105508.25;;;1.22;100.00
13420;BME280;6781;58.440;15.470;2024-02-15T09:56:00;105530.94;;;1.56;100.00
13420;BME280;6781;58.440;15.470;2024-02-15T09:58:41;105482.06;;;1.27;100.00
13420;BME280;6781;58.440;15.470;2024-02-15T10:07:20;105477.19;;;1.56;100.00
13420;BME280;6781;58.440;15.470;2024-02-15T10:10:16;105433.63;;;1.32;100.00
13420;BME280;6781;58.440;15.470;2024-02-15T10:13:05;105415.78;;;1.34;100.00
13420;BME280;6781;58.440;15.470;2024-02-15T10:16:00;105413.59;;;1.43;100.00
13420;BME280;6781;58.440;15.470;2024-02-15T11:42:45;105082.41;;;1.33;100.00
13420;BME280;6781;58.440;15.470;2024-02-15T11:45:22;105055.66;;;1.23;100.00
13420;BME280;6781;58.440;15.470;2024-02-15T11:48:09;105023.88;;;1.15;100.00
13420;BME280;6781;58.440;15.470;2024-02-15T11:51:13;104975.81;;;0.80;100.00
13420;BME280;6781;58.440;15.470;2024-02-15T11:54:19;105011.34;;;0.97;100.00
13420;BME280;6781;58.440;15.470;2024-02-15T12:12:25;105016.00;;;1.63;100.00
13420;BME280;6781;58.440;15.470;2024-02-15T12:15:16;105041.69;;;1.96;100.00
13420;BME280;6781;58.440;15.470;2024-02-15T12:18:18;104990.69;;;1.72;100.00
13420;BME280;6781;58.440;15.470;2024-02-15T12:21:04;105022.34;;;2.06;100.00
13420;BME280;6781;58.440;15.470;2024-02-15T12:23:37;104993.09;;;1.98;100.00
13420;BME280;6781;58.440;15.470;2024-02-15T12:26:08;105005.25;;;2.35;100.00
13420;BME280;6781;58.440;15.470;2024-02-15T12:28:48;104985.81;;;2.43;100.00
13420;BME280;6781;58.440;15.470;2024-02-15T12:31:31;104993.31;;;2.68;100.00
13420;BME280;6781;58.440;15.470;2024-02-15T12:34:17;104963.69;;;2.79;100.00
13420;BME280;6781;58.440;15.470;2024-02-15T12:37:05;104873.78;;;2.37;100.00
13420;BME280;6781;58.440;15.470;2024-02-15T12:39:34;104861.06;;;2.40;100.00
13420;BME280;6781;58.440;15.470;2024-02-15T12:42:07;104834.75;;;2.47;100.00
13420;BME280;6781;58.440;15.470;2024-02-15T12:44:46;104787.09;;;2.18;100.00
13420;BME280;6781;58.440;15.470;2024-02-15T12:47:21;104715.38;;;1.82;100.00
13420;BME280;6781;58.440;15.470;2024-02-15T12:49:53;104690.44;;;1.73;100.00
13420;BME280;6781;58.440;15.470;2024-02-15T12:54:39;104699.25;;;1.86;100.00
13420;BME280;6781;58.440;15.470;2024-02-15T12:55:34;104658.13;;;1.78;100.00
13420;BME280;6781;58.440;15.470;2024-02-15T12:58:01;104661.00;;;1.92;100.00
13420;BME280;6781;58.440;15.470;2024-02-15T13:00:31;104624.59;;;1.66;100.00
13420;BME280;6781;58.440;15.470;2024-02-15T13:02:58;104623.84;;;1.70;100.00
13420;BME280;6781;58.440;15.470;2024-02-15T13:05:28;104594.44;;;1.53;100.00
13420;BME280;6781;58.440;15.470;2024-02-15T13:07:56;104593.31;;;1.42;100.00
13420;BME280;6781;58.440;15.470;2024-02-15T13:10:23;104582.84;;;1.33;100.00
13420;BME280;6781;58.440;15.470;2024-02-15T13:12:51;104556.16;;;1.21;100.00
13420;BME280;6781;58.440;15.470;2024-02-15T13:15:18;104568.38;;;1.33;100.00
13420;BME280;6781;58.440;15.470;2024-02-15T13:17:48;104562.09;;;1.20;100.00
13420;BME280;6781;58.440;15.470;2024-02-15T13:20:16;104582.72;;;1.28;100.00
13420;BME280;6781;58.440;15.470;2024-02-15T13:22:45;104602.63;;;1.40;100.00
13420;BME280;6781;58.440;15.470;2024-02-15T13:25:13;104594.78;;;1.32;100.00
13420;BME280;6781;58.440;15.470;2024-02-15T13:27:42;104606.88;;;1.39;100.00
13420;BME280;6781;58.440;15.470;2024-02-15T13:30:10;104611.28;;;1.45;100.00
13420;BME280;6781;58.440;15.470;2024-02-15T13:32:38;104606.09;;;1.42;100.00
13420;BME280;6781;58.440;15.470;2024-02-15T13:35:08;104607.91;;;1.46;100.00
13420;BME280;6781;58.440;15.470;2024-02-15T13:37:42;104593.34;;;1.43;100.00
13420;BME280;6781;58.440;15.470;2024-02-15T13:40:12;104589.78;;;1.37;100.00
13420;BME280;6781;58.440;15.470;2024-02-15T13:42:41;104577.06;;;1.40;100.00
13420;BME280;6781;58.440;15.470;2024-02-15T13:45:14;104563.28;;;1.35;100.00
13420;BME280;6781;58.440;15.470;2024-02-15T13:47:43;104586.69;;;1.50;100.00
13420;BME280;6781;58.440;15.470;2024-02-15T13:50:12;104567.47;;;1.31;100.00
13420;BME280;6781;58.440;15.470;2024-02-15T13:52:40;104566.44;;;1.24;100.00
13420;BME280;6781;58.440;15.470;2024-02-15T13:55:09;104572.41;;;1.23;100.00
13420;BME280;6781;58.440;15.470;2024-02-15T13:57:36;104555.16;;;1.16;100.00
13420;BME280;6781;58.440;15.470;2024-02-15T14:00:03;104569.84;;;1.23;100.00
13420;BME280;6781;58.440;15.470;2024-02-15T14:02:31;104587.13;;;1.34;100.00
13420;BME280;6781;58.440;15.470;2024-02-15T14:04:58;104587.88;;;1.29;100.00
13420;BME280;6781;58.440;15.470;2024-02-15T14:07:26;104567.94;;;1.16;100.00
13420;BME280;6781;58.440;15.470;2024-02-15T14:09:52;104582.28;;;1.10;100.00
13420;BME280;6781;58.440;15.470;2024-02-15T14:12:19;104564.91;;;0.96;100.00
13420;BME280;6781;58.440;15.470;2024-02-15T14:14:46;104582.81;;;0.98;100.00
13420;BME280;6781;58.440;15.470;2024-02-15T14:17:13;104578.28;;;0.88;100.00
13420;BME280;6781;58.440;15.470;2024-02-15T14:19:40;104570.34;;;0.77;100.00
13420;BME280;6781;58.440;15.470;2024-02-15T14:22:09;104591.66;;;0.78;100.00
13420;BME280;6781;58.440;15.470;2024-02-15T14:24:42;104609.53;;;0.78;100.00
13420;BME280;6781;58.440;15.470;2024-02-15T14:27:09;104623.19;;;0.78;100.00
13420;BME280;6781;58.440;15.470;2024-02-15T14:29:36;104634.19;;;0.76;100.00
13420;BME280;6781;58.440;15.470;2024-02-15T14:32:10;104644.31;;;0.73;100.00
13420;BME280;6781;58.440;15.470;2024-02-15T14:34:54;104660.53;;;0.75;100.00
13420;BME280;6781;58.440;15.470;2024-02-15T14:37:21;104691.38;;;0.81;100.00
13420;BME280;6781;58.440;15.470;2024-02-15T14:39:50;104694.50;;;0.71;100.00
13420;BME280;6781;58.440;15.470;2024-02-15T14:42:32;104722.91;;;0.81;100.00
13420;BME280;6781;58.440;15.470;2024-02-15T14:45:04;104715.75;;;0.70;100.00
13420;BME280;6781;58.440;15.470;2024-02-15T14:47:31;104746.47;;;0.71;100.00
13420;BME280;6781;58.440;15.470;2024-02-15T14:49:58;104762.84;;;0.78;100.00
13420;BME280;6781;58.440;15.470;2024-02-15T14:52:25;104764.94;;;0.62;100.00
13420;BME280;6781;58.440;15.470;2024-02-15T14:54:54;104783.97;;;0.72;100.00
13420;BME280;6781;58.440;15.470;2024-02-15T14:57:20;104809.66;;;0.77;100.00
13420;BME280;6781;58.440;15.470;2024-02-15T14:59:49;104813.47;;;0.62;100.00
13420;BME280;6781;58.440;15.470;2024-02-15T15:02:16;104813.28;;;0.56;100.00
13420;BME280;6781;58.440;15.470;2024-02-15T15:04:42;104839.88;;;0.63;100.00
13420;BME280;6781;58.440;15.470;2024-02-15T15:07:33;104862.81;;;0.61;100.00
13420;BME280;6781;58.440;15.470;2024-02-15T15:10:19;104871.28;;;0.60;100.00
13420;BME280;6781;58.440;15.470;2024-02-15T15:13:03;104887.53;;;0.62;100.00